Time;durP1;ratioP1;P1;durP2;ratioP2;P2;SDS_P1;SDS_P2;PMS_P1;PMS_P2;Temp;Humidity;BMP_temperature;BMP_pressure;BME280_temperature;BME280_humidity;BME280_pressure;Samples;Min_cycle;Max_cycle;Signal;HPM_P1;HPM_P2
2021/10/26 00:00:07;;;;;;;53.60;31.30;;;;;;;11.02;100.00;101642.78;2611295;31;20532;-71
2021/10/26 00:02:38;;;;;;;46.97;29.80;;;;;;;10.94;100.00;101650.56;2611428;36;20551;-71
2021/10/26 00:05:08;;;;;;;51.53;30.63;;;;;;;10.98;100.00;101652.06;2612056;36;20145;-71
2021/10/26 00:07:37;;;;;;;53.08;31.67;;;;;;;10.97;100.00;101655.75;2612934;36;20618;-71
2021/10/26 00:10:07;;;;;;;50.83;30.98;;;;;;;10.91;100.00;101650.81;2612414;36;20141;-72
2021/10/26 00:12:35;;;;;;;54.13;32.75;;;;;;;10.94;100.00;101664.03;2612824;36;20030;-71
2021/10/26 00:20:32;;;;;;;55.80;33.15;;;;;;;11.00;100.00;101669.00;2612599;36;20042;-71
2021/10/26 00:23:00;;;;;;;53.92;33.58;;;;;;;10.99;100.00;101662.72;2612613;36;20065;-70
2021/10/26 00:25:29;;;;;;;57.83;32.38;;;;;;;11.04;100.00;101671.31;2611798;36;20042;-71
2021/10/26 00:27:58;;;;;;;56.15;32.42;;;;;;;11.10;100.00;101669.09;2612769;36;20031;-72
2021/10/26 00:30:26;;;;;;;53.83;32.88;;;;;;;11.05;100.00;101677.56;2612429;36;20697;-69
2021/10/26 00:32:56;;;;;;;53.70;31.73;;;;;;;11.12;100.00;101665.31;2612715;36;20482;-72
2021/10/26 00:35:27;;;;;;;54.15;33.08;;;;;;;11.10;100.00;101672.69;2612503;36;20402;-70
2021/10/26 00:38:01;;;;;;;55.10;31.55;;;;;;;11.01;100.00;101666.16;2612882;36;20037;-70
2021/10/26 00:40:30;;;;;;;56.75;33.72;;;;;;;10.99;100.00;101681.56;2612061;36;20042;-72
2021/10/26 00:42:58;;;;;;;;;;;;;;;11.05;100.00;101688.31;2612951;36;20155;-71
2021/10/26 00:45:28;;;;;;;54.35;32.20;;;;;;;11.11;100.00;101687.00;2612838;36;20022;-70
2021/10/26 00:47:57;;;;;;;55.30;33.65;;;;;;;11.12;100.00;101680.63;2612210;36;20567;-71
2021/10/26 00:50:25;;;;;;;;;;;;;;;11.07;100.00;101682.81;2612867;31;20167;-70
2021/10/26 00:52:53;;;;;;;55.05;31.83;;;;;;;11.07;100.00;101689.09;2612180;36;20030;-71
2021/10/26 00:55:25;;;;;;;56.47;34.28;;;;;;;11.05;100.00;101683.78;2611836;36;20126;-71
2021/10/26 00:57:57;;;;;;;51.10;32.70;;;;;;;11.09;100.00;101684.41;2612995;36;20423;-70
2021/10/26 01:00:26;;;;;;;55.78;33.17;;;;;;;11.11;100.00;101687.84;2612524;36;20626;-70
2021/10/26 01:02:54;;;;;;;57.20;33.60;;;;;;;11.07;100.00;101683.69;2612337;36;20078;-71
2021/10/26 01:05:22;;;;;;;54.80;32.78;;;;;;;11.10;100.00;101688.84;2612007;36;20161;-72
2021/10/26 01:07:50;;;;;;;58.72;35.13;;;;;;;11.05;100.00;101688.31;2612278;36;20030;-71
2021/10/26 01:10:19;;;;;;;56.43;32.83;;;;;;;11.06;100.00;101692.75;2611986;31;20163;-70
2021/10/26 01:12:51;;;;;;;53.55;32.65;;;;;;;11.05;100.00;101696.41;2612595;36;20043;-71
2021/10/26 01:15:19;;;;;;;57.00;32.58;;;;;;;11.02;100.00;101686.72;2612661;36;20162;-71
2021/10/26 01:17:48;;;;;;;55.15;33.75;;;;;;;11.01;100.00;101682.34;2612456;36;20178;-74
2021/10/26 01:20:19;;;;;;;53.15;32.22;;;;;;;11.02;100.00;101686.72;2612492;31;20057;-72
2021/10/26 01:22:47;;;;;;;58.05;35.05;;;;;;;11.05;100.00;101680.25;2612563;36;20130;-73
2021/10/26 01:25:16;;;;;;;53.60;31.63;;;;;;;11.07;100.00;101682.81;2612259;36;20082;-73
2021/10/26 01:27:47;;;;;;;56.05;31.95;;;;;;;11.10;100.00;101691.53;2611471;36;20157;-71
2021/10/26 01:30:16;;;;;;;63.13;34.22;;;;;;;11.08;100.00;101690.78;2612174;36;20039;-71
2021/10/26 01:32:45;;;;;;;55.85;33.20;;;;;;;11.10;100.00;101690.66;2612024;36;20061;-72
2021/10/26 01:35:13;;;;;;;58.07;31.63;;;;;;;11.05;100.00;101691.03;2612395;36;20205;-71
2021/10/26 01:37:44;;;;;;;58.00;31.77;;;;;;;11.03;100.00;101701.06;2612521;36;20130;-72
2021/10/26 01:40:13;;;;;;;51.05;33.25;;;;;;;11.01;100.00;101700.31;2612290;36;20126;-72
2021/10/26 01:42:41;;;;;;;63.63;35.20;;;;;;;11.04;100.00;101703.66;2612075;36;20128;-73
2021/10/26 01:45:10;;;;;;;58.20;33.58;;;;;;;11.00;100.00;101696.78;2612588;36;20559;-72
2021/10/26 01:47:39;;;;;;;61.90;32.47;;;;;;;11.04;100.00;101700.94;2612430;36;20440;-72
2021/10/26 01:50:10;;;;;;;59.73;32.80;;;;;;;11.05;100.00;101705.34;2612257;36;20130;-72
2021/10/26 01:52:38;;;;;;;57.47;32.25;;;;;;;11.04;100.00;101703.66;2612351;36;20890;-72
2021/10/26 01:55:11;;;;;;;55.25;31.75;;;;;;;11.02;100.00;101694.81;2612326;36;20531;-72
2021/10/26 01:57:40;;;;;;;55.25;30.98;;;;;;;11.00;100.00;101698.63;2612885;31;20552;-72
2021/10/26 02:00:10;;;;;;;57.63;32.00;;;;;;;11.00;100.00;101698.63;2612242;36;20519;-73
2021/10/26 02:02:39;;;;;;;56.97;31.40;;;;;;;10.93;100.00;101689.28;2612257;36;20185;-72
2021/10/26 02:05:09;;;;;;;66.38;32.05;;;;;;;10.84;100.00;101689.00;2611963;36;20035;-71
2021/10/26 02:07:37;;;;;;;59.40;32.72;;;;;;;10.90;100.00;101689.53;2612484;36;20130;-72
2021/10/26 02:10:09;;;;;;;59.25;33.05;;;;;;;10.89;100.00;101691.34;2611933;36;20182;-72
2021/10/26 02:12:38;;;;;;;56.38;32.13;;;;;;;10.93;100.00;101700.06;2612893;36;20055;-73
2021/10/26 02:15:07;;;;;;;60.08;32.28;;;;;;;10.92;100.00;101701.03;2612911;31;20030;-71
2021/10/26 02:17:36;;;;;;;55.08;31.92;;;;;;;10.86;100.00;101697.84;2612250;36;20057;-71
2021/10/26 02:20:05;;;;;;;56.58;31.13;;;;;;;10.79;100.00;101696.59;2611794;36;20147;-72
2021/10/26 02:22:33;;;;;;;61.90;33.20;;;;;;;10.74;100.00;101688.00;2612505;36;20138;-72
2021/10/26 02:25:01;;;;;;;63.13;32.10;;;;;;;10.73;100.00;101694.34;2612756;36;20138;-72
2021/10/26 02:27:32;;;;;;;64.97;33.65;;;;;;;10.68;100.00;101699.22;2611988;36;21161;-73
2021/10/26 02:30:01;;;;;;;58.40;32.40;;;;;;;10.73;100.00;101691.66;2612011;36;20061;-72
2021/10/26 02:32:29;;;;;;;62.20;35.13;;;;;;;10.75;100.00;101695.09;2612147;36;20117;-73
2021/10/26 02:34:57;;;;;;;59.50;32.33;;;;;;;10.80;100.00;101702.81;2611888;36;20170;-72
2021/10/26 02:37:25;;;;;;;59.55;32.75;;;;;;;10.84;100.00;101698.94;2612210;36;20085;-72
2021/10/26 02:39:53;;;;;;;63.85;33.20;;;;;;;10.83;100.00;101700.75;2612528;36;20125;-71
2021/10/26 02:42:22;;;;;;;66.72;34.33;;;;;;;10.83;100.00;101703.44;2611899;36;20034;-71
2021/10/26 02:44:53;;;;;;;61.37;33.63;;;;;;;10.84;100.00;101693.53;2612295;36;20073;-71
2021/10/26 02:47:21;;;;;;;58.17;32.30;;;;;;;10.91;100.00;101699.31;2612203;36;20164;-72
2021/10/26 02:49:49;;;;;;;67.45;34.80;;;;;;;10.92;100.00;101701.88;2612326;36;20162;-72
2021/10/26 02:52:18;;;;;;;68.82;34.60;;;;;;;10.91;100.00;101705.56;2612077;36;20523;-73
2021/10/26 02:54:46;;;;;;;63.13;32.25;;;;;;;10.89;100.00;101701.25;2612166;36;20027;-71
2021/10/26 02:57:15;;;;;;;66.40;33.83;;;;;;;10.90;100.00;101708.38;2612062;36;20122;-73
2021/10/26 02:59:43;;;;;;;76.32;35.80;;;;;;;10.87;100.00;101710.31;2612288;36;20030;-72
2021/10/26 03:02:14;;;;;;;60.65;33.05;;;;;;;10.99;100.00;101713.06;2611385;36;20146;-72
2021/10/26 03:04:42;;;;;;;63.60;33.30;;;;;;;10.92;100.00;101709.09;2611545;36;20551;-73
2021/10/26 03:07:10;;;;;;;68.53;34.67;;;;;;;10.93;100.00;101713.53;2612453;36;20552;-73
2021/10/26 03:09:38;;;;;;;67.85;32.85;;;;;;;10.95;100.00;101709.72;2611934;36;20550;-71
2021/10/26 03:12:07;;;;;;;62.58;33.45;;;;;;;10.93;100.00;101713.53;2612075;36;20620;-72
2021/10/26 03:14:35;;;;;;;;;;;;;;;10.91;100.00;101710.06;2612168;36;20497;-71
2021/10/26 03:17:04;;;;;;;67.70;34.60;;;;;;;10.91;100.00;101715.47;2611755;36;19975;-73
2021/10/26 03:19:35;;;;;;;68.63;33.80;;;;;;;10.86;100.00;101713.13;2611923;36;20163;-73
2021/10/26 03:22:03;;;;;;;63.67;34.00;;;;;;;10.84;100.00;101725.84;2611978;36;20035;-71
2021/10/26 03:24:31;;;;;;;72.82;34.22;;;;;;;10.86;100.00;101719.38;2612161;36;20514;-73
2021/10/26 03:26:59;;;;;;;66.45;33.65;;;;;;;10.78;100.00;101712.88;2611987;36;20035;-72
2021/10/26 03:29:27;;;;;;;68.47;33.67;;;;;;;10.73;100.00;101718.56;2612056;36;20156;-73
2021/10/26 03:31:56;;;;;;;72.30;34.97;;;;;;;10.67;100.00;101706.47;2611392;36;20167;-73
2021/10/26 03:34:24;;;;;;;79.23;37.10;;;;;;;10.61;100.00;101704.22;2611606;36;20130;-72
2021/10/26 03:36:55;;;;;;;76.33;36.30;;;;;;;10.59;100.00;101714.25;2611849;36;20038;-72
2021/10/26 03:39:23;;;;;;;71.07;36.53;;;;;;;10.63;100.00;101717.56;2612002;36;20315;-73
2021/10/26 03:41:52;;;;;;;73.13;36.33;;;;;;;10.58;100.00;101720.59;2612036;36;20172;-71
2021/10/26 03:44:20;;;;;;;74.85;35.50;;;;;;;10.60;100.00;101715.09;2612414;36;20122;-72
2021/10/26 03:46:48;;;;;;;76.30;36.85;;;;;;;10.57;100.00;101712.63;2612415;36;20104;-73
2021/10/26 03:49:16;;;;;;;81.20;38.63;;;;;;;10.51;100.00;101713.94;2612405;36;20031;-71
2021/10/26 03:51:44;;;;;;;68.18;36.97;;;;;;;10.53;100.00;101722.78;2612922;36;20145;-73
2021/10/26 03:54:15;;;;;;;69.60;36.72;;;;;;;10.54;100.00;101723.63;2613304;31;20492;-73
2021/10/26 03:56:44;;;;;;;74.97;38.17;;;;;;;10.52;100.00;101718.38;2612646;36;20508;-71
2021/10/26 03:59:12;;;;;;;80.03;38.00;;;;;;;10.57;100.00;101723.41;2612445;36;20038;-73
2021/10/26 04:01:40;;;;;;;72.20;36.45;;;;;;;10.57;100.00;101723.41;2612503;36;20042;-71
2021/10/26 04:04:08;;;;;;;66.65;35.92;;;;;;;10.60;100.00;101720.47;2612544;36;20434;-72
2021/10/26 04:06:37;;;;;;;72.68;36.20;;;;;;;10.55;100.00;101719.97;2613421;31;20572;-73
2021/10/26 04:09:08;;;;;;;71.45;37.00;;;;;;;10.53;100.00;101722.78;2612957;36;20447;-71
2021/10/26 04:11:51;;;;;;;74.20;35.92;;;;;;;10.55;100.00;101722.66;2612513;36;20081;-73
2021/10/26 04:14:19;;;;;;;74.38;36.00;;;;;;;10.59;100.00;101724.16;2613001;36;20193;-72
2021/10/26 04:16:48;;;;;;;70.63;35.53;;;;;;;10.54;100.00;101731.72;2612746;36;20531;-72
2021/10/26 04:19:16;;;;;;;61.45;35.65;;;;;;;10.48;100.00;101736.59;2612857;36;20487;-72
2021/10/26 04:21:44;;;;;;;79.20;37.37;;;;;;;10.48;100.00;101735.72;2612658;36;20133;-73
2021/10/26 04:24:13;;;;;;;72.65;36.90;;;;;;;10.47;100.00;101739.41;2612761;31;20065;-73
2021/10/26 04:26:43;;;;;;;77.40;36.88;;;;;;;10.48;100.00;101741.09;2612347;31;20030;-71
2021/10/26 04:29:12;;;;;;;73.47;37.03;;;;;;;10.43;100.00;101744.13;2612454;36;20190;-71
2021/10/26 04:31:40;;;;;;;73.50;37.83;;;;;;;10.43;100.00;101744.13;2612617;36;20031;-72
2021/10/26 04:34:08;;;;;;;83.07;38.42;;;;;;;10.37;100.00;101752.66;2612222;36;20370;-74
2021/10/26 04:36:37;;;;;;;84.32;38.13;;;;;;;10.35;100.00;101746.53;2612376;31;20516;-72
2021/10/26 04:39:05;;;;;;;77.80;38.80;;;;;;;10.34;100.00;101744.81;2612530;36;20249;-72
2021/10/26 04:41:34;;;;;;;89.57;41.60;;;;;;;10.33;100.00;101751.13;2611782;36;20082;-72
2021/10/26 04:44:05;;;;;;;79.68;38.60;;;;;;;10.32;100.00;101746.72;2612753;36;20035;-71
2021/10/26 04:46:34;;;;;;;78.22;38.60;;;;;;;10.37;100.00;101741.91;2612727;36;20552;-73
2021/10/26 04:49:02;;;;;;;75.38;37.75;;;;;;;10.37;100.00;101739.22;2612350;36;20038;-73
2021/10/26 04:51:30;;;;;;;77.38;39.55;;;;;;;10.37;100.00;101743.75;2612244;36;20109;-71
2021/10/26 04:53:58;;;;;;;79.07;38.55;;;;;;;10.33;100.00;101745.75;2612508;36;20129;-71
2021/10/26 04:56:27;;;;;;;81.22;39.03;;;;;;;10.35;100.00;101757.31;2612380;36;20160;-73
2021/10/26 04:58:55;;;;;;;85.75;37.80;;;;;;;10.41;100.00;101764.03;2612405;36;20129;-72
2021/10/26 05:01:26;;;;;;;85.72;38.95;;;;;;;10.37;100.00;101765.28;2612510;36;20031;-73
2021/10/26 05:03:54;;;;;;;80.15;37.85;;;;;;;10.35;100.00;101762.69;2612376;36;20038;-73
2021/10/26 05:06:22;;;;;;;82.95;37.55;;;;;;;10.30;100.00;101759.44;2612385;31;20121;-72
2021/10/26 05:08:52;;;;;;;87.97;40.73;;;;;;;10.26;100.00;101766.88;2611982;36;20068;-72
2021/10/26 05:11:21;;;;;;;88.20;40.60;;;;;;;10.26;100.00;101771.38;2612270;36;20030;-72
2021/10/26 05:13:50;;;;;;;87.13;39.25;;;;;;;10.33;100.00;101769.97;2612452;36;20030;-73
2021/10/26 05:16:19;;;;;;;87.90;39.45;;;;;;;10.35;100.00;101773.47;2612447;36;20038;-72
2021/10/26 05:21:20;;;;;;;87.40;38.95;;;;;;;10.33;100.00;101778.94;2611757;36;20556;-72
2021/10/26 05:23:49;;;;;;;91.72;39.47;;;;;;;10.32;100.00;101787.94;2612490;36;20511;-72
2021/10/26 05:29:14;;;;;;;76.85;35.97;;;;;;;10.41;100.00;101788.25;2612261;36;20559;-72
2021/10/26 05:51:20;;;;;;;68.82;35.58;;;;;;;10.21;100.00;101808.53;2610685;36;20527;-72
2021/10/26 06:50:52;;;;;;;85.25;37.55;;;;;;;9.99;100.00;101847.72;2627591;36;20026;-71
2021/10/26 06:54:08;;;;;;;87.90;40.20;;;;;;;9.95;100.00;101846.19;2629583;36;20613;-72
2021/10/26 06:57:07;;;;;;;89.15;39.90;;;;;;;9.99;100.00;101863.84;2646919;36;20054;-72
2021/10/26 07:00:04;;;;;;;86.95;38.78;;;;;;;9.97;100.00;101858.59;2630372;36;20113;-74
2021/10/26 07:03:09;;;;;;;84.82;39.13;;;;;;;10.01;100.00;101861.91;2647680;36;20030;-71
2021/10/26 07:06:07;;;;;;;89.30;38.88;;;;;;;10.04;100.00;101882.34;2629948;36;20447;-72
2021/10/26 07:09:03;;;;;;;76.47;36.88;;;;;;;10.08;100.00;101879.34;2648401;36;20121;-73
2021/10/26 07:12:01;;;;;;;85.30;37.97;;;;;;;10.11;100.00;101884.50;2629755;36;20035;-72
2021/10/26 07:15:01;;;;;;;84.13;38.42;;;;;;;10.17;100.00;101878.72;2648325;36;20030;-72
2021/10/26 07:17:47;;;;;;;;;;;;;;;10.20;100.00;101892.91;2630848;36;20084;-74
2021/10/26 07:20:45;;;;;;;83.30;38.28;;;;;;;10.22;100.00;101886.44;2649104;36;20443;-74
2021/10/26 07:23:41;;;;;;;78.57;35.22;;;;;;;10.23;100.00;101898.94;2630291;36;20034;-73
2021/10/26 07:26:38;;;;;;;76.75;38.22;;;;;;;10.17;100.00;101894.84;2648362;36;20061;-71
2021/10/26 07:29:58;;;;;;;74.05;38.20;;;;;;;10.25;100.00;101890.75;2630680;36;20030;-72
2021/10/26 07:33:08;;;;;;;79.53;37.35;;;;;;;10.26;100.00;101892.47;2647584;36;20031;-71
2021/10/26 07:36:07;;;;;;;76.20;38.15;;;;;;;10.25;100.00;101882.69;2629437;36;20030;-72
2021/10/26 07:39:06;;;;;;;78.20;37.53;;;;;;;10.31;100.00;101883.09;2647657;36;20038;-73
2021/10/26 07:42:02;;;;;;;74.13;36.67;;;;;;;10.39;100.00;101887.97;2630774;36;20109;-71
2021/10/26 07:44:56;;;;;;;75.43;36.28;;;;;;;10.30;100.00;101889.44;2647979;36;20030;-73
2021/10/26 07:47:52;;;;;;;62.25;36.40;;;;;;;10.31;100.00;101890.31;2629405;36;20034;-73
2021/10/26 07:50:50;;;;;;;66.07;35.35;;;;;;;10.36;100.00;101896.25;2648165;36;20034;-73
2021/10/26 07:53:52;;;;;;;66.82;34.50;;;;;;;10.45;100.00;101898.31;2629585;36;20030;-73
2021/10/26 07:56:50;;;;;;;63.83;33.40;;;;;;;10.41;100.00;101888.72;2648469;36;20067;-73
2021/10/26 07:59:45;;;;;;;57.30;31.02;;;;;;;10.40;100.00;101894.22;2630297;36;20031;-71
2021/10/26 08:02:43;;;;;;;61.17;30.75;;;;;;;10.53;100.00;101895.06;2647789;36;20034;-72
2021/10/26 08:05:42;;;;;;;58.53;30.67;;;;;;;10.66;100.00;101889.66;2630066;36;20034;-72
2021/10/26 08:08:41;;;;;;;54.42;27.00;;;;;;;10.67;100.00;101904.81;2647427;36;20042;-73
2021/10/26 08:11:39;;;;;;;58.00;29.75;;;;;;;10.85;100.00;101900.78;2628582;36;20061;-72
2021/10/26 08:14:34;;;;;;;55.45;30.17;;;;;;;10.90;100.00;101896.91;2648020;36;20130;-73
2021/10/26 08:17:37;;;;;;;55.60;28.95;;;;;;;10.92;100.00;101889.56;2630157;36;20030;-71
2021/10/26 08:20:46;;;;;;;52.28;28.55;;;;;;;10.91;100.00;101880.63;2642601;36;20464;-74
2021/10/26 08:23:39;;;;;;;50.15;26.65;;;;;;;10.91;100.00;101882.44;2630389;31;20038;-73
2021/10/26 08:29:48;;;;;;;49.63;25.80;;;;;;;11.08;100.00;101873.97;2628968;36;20042;-72
2021/10/26 08:35:55;;;;;;;42.83;24.17;;;;;;;11.26;100.00;101863.66;2630668;36;20030;-70
2021/10/26 08:38:51;;;;;;;39.72;24.45;;;;;;;11.35;100.00;101862.09;2648282;36;20065;-74
2021/10/26 08:41:48;;;;;;;43.58;25.38;;;;;;;11.35;100.00;101868.38;2630586;36;20479;-72
2021/10/26 08:44:46;;;;;;;40.88;24.77;;;;;;;11.38;100.00;101865.44;2648363;36;20392;-73
2021/10/26 08:47:48;;;;;;;45.85;26.50;;;;;;;11.31;100.00;101874.97;2630550;36;20030;-73
2021/10/26 08:50:48;;;;;;;41.75;25.83;;;;;;;11.33;100.00;101873.00;2648572;36;20582;-72
2021/10/26 08:53:48;;;;;;;41.90;26.35;;;;;;;11.40;100.00;101878.78;2629621;36;20559;-72
2021/10/26 08:56:44;;;;;;;44.30;25.17;;;;;;;11.50;100.00;101869.03;2648117;36;20030;-72
2021/10/26 08:59:41;;;;;;;39.67;24.77;;;;;;;11.53;100.00;101868.78;2630097;36;20082;-72
2021/10/26 09:02:44;;;;;;;38.92;24.73;;;;;;;11.63;100.00;101868.94;2648128;36;20035;-70
2021/10/26 09:10:33;;;;;;;36.45;23.23;;;;;;;11.84;100.00;101866.41;2613184;36;20130;-71
2021/10/26 09:18:32;;;;;;;44.05;24.70;;;;;;;12.10;100.00;101877.03;2612570;31;20614;-72
2021/10/26 09:21:00;;;;;;;37.72;24.23;;;;;;;12.20;100.00;101879.88;2612823;31;20041;-73
2021/10/26 09:23:29;;;;;;;41.38;25.58;;;;;;;12.32;100.00;101872.63;2612620;36;20177;-72
2021/10/26 09:26:02;;;;;;;37.95;23.80;;;;;;;12.42;100.00;101876.31;2612835;36;20030;-73
2021/10/26 09:28:31;;;;;;;37.08;24.50;;;;;;;12.38;100.00;101874.81;2612776;36;20030;-71
2021/10/26 09:31:01;;;;;;;38.70;25.90;;;;;;;12.28;100.00;101872.03;2612567;36;20155;-72
2021/10/26 09:33:32;;;;;;;42.40;25.48;;;;;;;12.49;100.00;101863.19;2610950;36;20177;-72
2021/10/26 09:36:31;;;;;;;37.28;26.05;;;;;;;12.33;100.00;101867.09;2612329;31;20030;-71
2021/10/26 09:39:13;;;;;;;42.83;27.17;;;;;;;12.39;100.00;101863.91;2612065;36;20046;-71
2021/10/26 09:42:01;;;;;;;42.05;25.65;;;;;;;12.16;100.00;101871.16;2612322;36;20039;-72
2021/10/26 09:44:32;;;;;;;42.72;25.90;;;;;;;12.24;100.00;101863.28;2612294;36;20030;-71
2021/10/26 09:47:02;;;;;;;43.60;26.40;;;;;;;12.37;100.00;101867.72;2612973;54;20162;-72
2021/10/26 09:49:32;;;;;;;36.33;25.20;;;;;;;12.49;100.00;101865.88;2612812;36;20092;-73
2021/10/26 09:52:13;;;;;;;37.45;24.00;;;;;;;12.47;100.00;101874.09;2612782;36;20031;-72
2021/10/26 09:54:42;;;;;;;32.30;22.25;;;;;;;12.44;100.00;101868.97;2612674;36;20038;-71
2021/10/26 09:57:14;;;;;;;;;;;;;;;12.55;100.00;101871.63;2613004;36;20061;-71
2021/10/26 09:59:51;;;;;;;39.25;23.10;;;;;;;12.71;100.00;101882.06;2612460;36;19973;-72
2021/10/26 10:02:23;;;;;;;32.20;20.90;;;;;;;12.70;100.00;101868.69;2612143;36;20034;-72
2021/10/26 10:04:53;;;;;;;30.88;20.48;;;;;;;12.69;100.00;101866.94;2611997;36;20031;-71
2021/10/26 10:07:33;;;;;;;34.80;20.33;;;;;;;12.86;100.00;101873.69;2611404;36;20065;-71
2021/10/26 10:10:04;;;;;;;33.67;19.00;;;;;;;12.83;100.00;101873.94;2612120;36;20601;-72
2021/10/26 10:12:36;;;;;;;27.27;17.98;;;;;;;12.72;100.00;101882.91;2612586;36;20042;-71
2021/10/26 10:15:07;;;;;;;29.67;18.98;;;;;;;12.66;100.00;101880.69;2611922;36;20154;-72
2021/10/26 10:17:36;;;;;;;31.05;17.75;;;;;;;12.89;100.00;101882.38;2612023;36;20086;-72
2021/10/26 10:20:07;;;;;;;32.63;17.65;;;;;;;12.94;100.00;101872.06;2611777;36;20042;-71
2021/10/26 10:22:45;;;;;;;30.48;18.85;;;;;;;12.77;100.00;101876.13;2611569;36;20042;-71
2021/10/26 10:25:15;;;;;;;35.30;19.53;;;;;;;12.86;100.00;101874.53;2612748;31;20030;-72
2021/10/26 10:27:48;;;;;;;36.63;19.77;;;;;;;12.72;100.00;101872.09;2612406;36;20030;-73
2021/10/26 10:30:17;;;;;;;35.63;19.23;;;;;;;12.79;100.00;101873.31;2611636;31;20031;-71
2021/10/26 10:32:45;;;;;;;31.80;19.10;;;;;;;12.96;100.00;101870.09;2612381;36;20030;-71
2021/10/26 10:35:16;;;;;;;37.70;19.08;;;;;;;13.19;100.00;101863.75;2612462;36;20065;-72
2021/10/26 10:37:46;;;;;;;31.10;18.60;;;;;;;13.30;100.00;101866.41;2611663;36;20162;-72
2021/10/26 10:40:14;;;;;;;38.65;21.50;;;;;;;13.02;100.00;101882.22;2630299;36;20551;-71
2021/10/26 10:42:51;;;;;;;41.63;22.98;;;;;;;12.95;100.00;101873.75;2611056;36;20181;-72
2021/10/26 10:45:26;;;;;;;36.70;22.52;;;;;;;12.87;100.00;101873.56;2612358;36;20623;-74
2021/10/26 10:47:57;;;;;;;36.53;22.15;;;;;;;13.02;100.00;101893.03;2611777;36;20067;-72
2021/10/26 10:50:34;;;;;;;41.10;23.67;;;;;;;12.95;100.00;101897.22;2613478;36;20557;-72
2021/10/26 10:53:15;;;;;;;41.78;23.35;;;;;;;12.90;100.00;101886.81;2612449;36;20094;-71
2021/10/26 10:55:47;;;;;;;44.10;24.30;;;;;;;12.87;100.00;101886.22;2612460;36;20531;-72
2021/10/26 10:58:33;;;;;;;39.70;24.27;;;;;;;12.62;100.00;101890.91;2610510;36;20408;-72
2021/10/26 11:01:23;;;;;;;49.45;25.23;;;;;;;12.64;100.00;101902.44;2611217;36;20043;-73
2021/10/26 11:03:53;;;;;;;44.60;25.20;;;;;;;12.63;100.00;101892.59;2611621;36;20432;-73
2021/10/26 11:06:56;;;;;;;43.85;25.08;;;;;;;12.80;100.00;101888.56;2611650;36;20459;-72
2021/10/26 11:09:55;;;;;;;46.97;25.45;;;;;;;12.62;100.00;101886.34;2612394;36;20146;-73
2021/10/26 11:12:36;;;;;;;39.08;24.50;;;;;;;12.51;100.00;101896.31;2612630;31;26127;-72
2021/10/26 11:15:08;;;;;;;42.95;24.88;;;;;;;12.41;100.00;101896.19;2612396;31;20053;-71
2021/10/26 11:20:48;;;;;;;47.10;27.65;;;;;;;12.03;100.00;101902.78;2611032;36;20037;-70
2021/10/26 11:23:42;;;;;;;54.47;28.77;;;;;;;12.11;100.00;101894.09;2611638;31;20038;-69
2021/10/26 11:26:16;;;;;;;53.80;29.13;;;;;;;12.12;100.00;101901.19;2628436;36;20034;-69
2021/10/26 11:28:56;;;;;;;50.72;29.30;;;;;;;12.10;100.00;101882.41;2611925;36;20058;-70
2021/10/26 11:31:49;;;;;;;53.47;30.70;;;;;;;12.26;100.00;101882.94;2611822;36;20450;-70
2021/10/26 11:34:22;;;;;;;50.75;28.80;;;;;;;12.15;100.00;101880.22;2611282;36;20122;-72
2021/10/26 11:37:06;;;;;;;51.97;26.55;;;;;;;12.34;100.00;101879.63;2611948;31;20030;-71
2021/10/26 11:39:35;;;;;;;50.22;26.15;;;;;;;12.33;100.00;101877.06;2611409;36;20061;-71
2021/10/26 11:42:07;;;;;;;49.67;25.20;;;;;;;12.59;100.00;101877.66;2612028;36;20034;-69
2021/10/26 11:44:35;;;;;;;43.13;24.85;;;;;;;12.40;100.00;101871.03;2630247;36;20037;-72
2021/10/26 11:47:07;;;;;;;38.80;24.58;;;;;;;12.19;100.00;101879.00;2612049;36;20122;-72
2021/10/26 11:49:35;;;;;;;43.83;25.10;;;;;;;12.10;100.00;101877.03;2612262;36;20030;-70
2021/10/26 11:52:06;;;;;;;42.63;25.45;;;;;;;11.96;100.00;101869.19;2611800;36;20168;-71
2021/10/26 11:54:38;;;;;;;47.72;29.20;;;;;;;11.96;100.00;101874.56;2629910;36;20565;-70
2021/10/26 11:57:08;;;;;;;48.70;27.13;;;;;;;12.03;100.00;101875.81;2611155;36;20039;-70
2021/10/26 11:59:39;;;;;;;53.22;30.83;;;;;;;11.88;100.00;101870.59;2611729;36;20130;-71
2021/10/26 12:02:16;;;;;;;49.00;28.92;;;;;;;12.00;100.00;101874.22;2612179;36;20062;-70
2021/10/26 12:04:51;;;;;;;53.80;28.85;;;;;;;11.94;100.00;101872.00;2611948;36;20054;-70
2021/10/26 12:07:21;;;;;;;50.03;30.20;;;;;;;12.04;100.00;101866.72;2612657;36;20567;-71
2021/10/26 12:09:52;;;;;;;50.55;30.90;;;;;;;12.04;100.00;101864.03;2612937;31;20523;-72
2021/10/26 12:12:22;;;;;;;53.25;31.10;;;;;;;12.06;100.00;101864.78;2611980;36;20034;-71
2021/10/26 12:14:52;;;;;;;52.03;29.73;;;;;;;12.20;100.00;101861.81;2611761;31;20082;-70
2021/10/26 12:17:27;;;;;;;50.00;29.30;;;;;;;12.35;100.00;101857.06;2612445;36;20034;-70
2021/10/26 12:19:58;;;;;;;54.55;30.40;;;;;;;12.45;100.00;101857.16;2610431;36;20518;-71
2021/10/26 12:22:35;;;;;;;49.63;29.63;;;;;;;12.26;100.00;101850.56;2611705;36;20070;-70
2021/10/26 12:25:16;;;;;;;46.88;30.02;;;;;;;12.24;100.00;101855.19;2612607;36;20031;-71
2021/10/26 12:27:49;;;;;;;50.80;28.75;;;;;;;12.33;100.00;101861.69;2612476;36;20186;-72
2021/10/26 12:30:22;;;;;;;46.95;27.98;;;;;;;12.32;100.00;101853.72;2611944;36;20054;-70
2021/10/26 12:33:02;;;;;;;46.97;28.42;;;;;;;12.45;100.00;101843.66;2612065;36;20171;-69
2021/10/26 12:38:28;;;;;;;40.55;25.50;;;;;;;12.85;100.00;101855.75;2611949;36;20038;-72
2021/10/26 12:40:59;;;;;;;39.70;26.23;;;;;;;12.72;100.00;101839.69;2612538;36;20591;-69
2021/10/26 12:43:29;;;;;;;38.80;25.73;;;;;;;12.89;100.00;101835.59;2612507;36;20105;-71
2021/10/26 12:46:02;;;;;;;39.85;25.98;;;;;;;13.20;100.00;101847.41;2613038;36;20117;-71
2021/10/26 12:48:42;;;;;;;40.88;25.05;;;;;;;13.23;100.00;101839.03;2613155;36;20538;-73
2021/10/26 12:51:10;;;;;;;37.85;24.05;;;;;;;13.02;100.00;101846.25;2612178;36;20171;-72
2021/10/26 12:53:41;;;;;;;34.90;23.70;;;;;;;12.99;100.00;101836.56;2612983;31;20688;-73
2021/10/26 12:56:21;;;;;;;35.92;23.15;;;;;;;12.87;100.00;101841.13;2612765;36;20287;-71
2021/10/26 12:58:51;;;;;;;35.33;24.45;;;;;;;12.84;100.00;101852.19;2612818;36;20164;-71
2021/10/26 13:01:28;;;;;;;38.05;24.23;;;;;;;12.89;100.00;101844.56;2612514;31;20097;-71
2021/10/26 13:04:13;;;;;;;36.55;22.77;;;;;;;12.83;100.00;101838.81;2612571;31;20037;-70
2021/10/26 13:06:48;;;;;;;32.83;21.80;;;;;;;12.94;100.00;101834.25;2612885;36;20069;-71
2021/10/26 13:09:30;;;;;;;33.20;21.40;;;;;;;12.97;100.00;101830.44;2613146;36;20430;-71
2021/10/26 13:12:14;;;;;;;32.08;21.20;;;;;;;12.85;100.00;101829.56;2612822;36;20044;-71
2021/10/26 13:15:17;;;;;;;27.23;20.15;;;;;;;12.89;100.00;101833.75;2612233;36;20114;-71
2021/10/26 13:17:47;;;;;;;25.35;19.00;;;;;;;12.89;100.00;101831.03;2612657;36;20066;-72
2021/10/26 13:25:43;;;;;;;28.23;18.08;;;;;;;12.82;100.00;101848.75;2612140;54;19953;-70
2021/10/26 13:28:12;;;;;;;29.05;19.40;;;;;;;12.76;100.00;101851.97;2612098;31;20038;-72
2021/10/26 13:30:54;;;;;;;27.13;19.38;;;;;;;12.87;100.00;101838.44;2612530;36;20043;-71
2021/10/26 13:33:24;;;;;;;25.77;17.65;;;;;;;12.87;100.00;101843.00;2611524;36;20038;-74
2021/10/26 13:35:52;;;;;;;;;;;;;;;12.87;100.00;101848.38;2611984;31;20535;-72
2021/10/26 13:38:21;;;;;;;28.67;17.60;;;;;;;12.83;100.00;101846.91;2611707;36;19947;-72